Terminal Aerodrome Forecast
Issued by NWS

Home | Current Version | Previous Version | Text Only | Print | Product List | Glossary On
Versions: 1 2 3 4 5 6 7 8 9 10 11 12 13 14 15 16 17 18 19 20 21 22 23 24 25 26 27 28 29 30 31 32 33 34 35 36
000
FTUS43 KGRB 221700
TAFRHI
TAF
KRHI 221736Z 2218/2318 16006KT P6SM SKC
     FM230000 17006KT P6SM BKN200
     FM230700 17005KT P6SM BKN050
     FM231100 17005KT P6SM OVC012
      TEMPO 2311/2315 3SM -SHRA
     FM231500 17008KT 3SM -SHRA BR OVC008=

USA.gov is the U.S. government's official web portal to all federal, state and local government web resources and services.